createdAt,value
2022-09-26T00:01:14.328Z,10.36
2022-09-26T00:03:44.951Z,10.40
2022-09-26T00:06:12.592Z,10.42
2022-09-26T00:08:39.816Z,10.44
2022-09-26T00:11:09.208Z,10.46
2022-09-26T00:13:38.906Z,10.46
2022-09-26T00:16:06.460Z,10.48
2022-09-26T00:18:33.956Z,10.50
2022-09-26T00:21:09.946Z,10.52
2022-09-26T00:23:36.789Z,10.54
2022-09-26T00:26:03.922Z,10.56
2022-09-26T00:28:30.934Z,10.59
2022-09-26T00:30:57.809Z,10.59
2022-09-26T00:33:24.331Z,10.60
2022-09-26T00:35:55.548Z,10.58
2022-09-26T00:38:22.485Z,10.56
2022-09-26T00:40:49.417Z,10.54
2022-09-26T00:43:36.265Z,10.52
2022-09-26T00:46:20.938Z,10.50
2022-09-26T00:48:54.858Z,10.49
2022-09-26T00:51:22.266Z,10.49
2022-09-26T00:53:52.188Z,10.48
2022-09-26T00:56:22.952Z,10.48
2022-09-26T00:58:59.496Z,10.47
2022-09-26T01:01:26.164Z,10.47
2022-09-26T01:03:52.792Z,10.47
2022-09-26T01:06:21.225Z,10.46
2022-09-26T01:08:58.815Z,10.46
2022-09-26T01:11:25.779Z,10.46
2022-09-26T01:13:54.358Z,10.46
2022-09-26T01:16:20.967Z,10.48
2022-09-26T01:18:48.201Z,10.48
2022-09-26T01:21:54.241Z,10.49
2022-09-26T01:25:02.482Z,10.48
2022-09-26T01:27:35.338Z,10.48
2022-09-26T01:30:15.635Z,10.46
2022-09-26T01:33:13.448Z,10.46
2022-09-26T01:35:48.792Z,10.46
2022-09-26T01:38:44.547Z,10.45
2022-09-26T01:41:39.311Z,10.44
2022-09-26T01:44:23.374Z,10.44
2022-09-26T01:47:01.573Z,10.44
2022-09-26T01:50:03.150Z,10.43
2022-09-26T01:52:39.352Z,10.41
2022-09-26T01:55:14.111Z,10.41
2022-09-26T01:57:50.838Z,10.41
2022-09-26T02:00:18.532Z,10.41
2022-09-26T02:02:47.677Z,10.41
2022-09-26T02:05:22.416Z,10.41
2022-09-26T02:08:17.682Z,10.42
2022-09-26T02:10:49.120Z,10.41
2022-09-26T02:13:33.518Z,10.41
2022-09-26T02:16:11.498Z,10.41
2022-09-26T02:18:48.090Z,10.40
2022-09-26T02:21:18.937Z,10.39
2022-09-26T02:23:47.317Z,10.37
2022-09-26T02:26:14.101Z,10.35
2022-09-26T02:28:40.850Z,10.31
2022-09-26T02:31:08.355Z,10.30
2022-09-26T02:33:35.873Z,10.28
2022-09-26T02:36:08.336Z,10.26
2022-09-26T02:38:34.924Z,10.25
2022-09-26T02:41:01.278Z,10.23
2022-09-26T02:43:52.466Z,10.22
2022-09-26T02:46:28.033Z,10.20
2022-09-26T02:49:39.022Z,10.19
2022-09-26T02:52:32.844Z,10.17
2022-09-26T02:55:24.358Z,10.17
2022-09-26T02:58:21.198Z,10.16
2022-09-26T03:00:50.481Z,10.15
2022-09-26T03:03:31.886Z,10.13
2022-09-26T03:06:00.670Z,10.11
2022-09-26T03:08:30.949Z,10.10
2022-09-26T03:11:02.883Z,10.09
2022-09-26T03:13:35.808Z,10.08
2022-09-26T03:16:03.154Z,10.06
2022-09-26T03:18:36.675Z,10.04
2022-09-26T03:21:03.119Z,10.03
2022-09-26T03:23:30.080Z,10.03
2022-09-26T03:26:02.282Z,10.02
2022-09-26T03:28:31.751Z,10.03
2022-09-26T03:31:00.510Z,10.02
2022-09-26T03:33:26.975Z,10.02
2022-09-26T03:35:53.457Z,10.02
2022-09-26T03:38:19.889Z,10.02
2022-09-26T03:40:46.624Z,10.03
2022-09-26T03:43:13.380Z,10.06
2022-09-26T03:45:39.830Z,10.05
2022-09-26T03:48:06.299Z,10.05
2022-09-26T03:50:33.902Z,10.05
2022-09-26T03:53:01.370Z,10.05
2022-09-26T03:55:28.532Z,10.06
2022-09-26T03:57:55.897Z,10.06
2022-09-26T04:00:22.309Z,10.06
2022-09-26T04:02:48.807Z,10.06
2022-09-26T04:05:15.341Z,10.04
2022-09-26T04:07:44.436Z,10.06
2022-09-26T04:10:14.152Z,10.03
2022-09-26T04:12:40.819Z,10.05
2022-09-26T04:15:08.059Z,10.05
2022-09-26T04:17:34.504Z,10.05
2022-09-26T04:20:01.631Z,10.04
2022-09-26T04:22:28.087Z,10.06
2022-09-26T04:24:54.528Z,10.06
2022-09-26T04:27:20.930Z,10.06
2022-09-26T04:29:47.431Z,10.04
2022-09-26T04:32:13.932Z,10.05
2022-09-26T04:34:40.649Z,10.04
2022-09-26T04:37:07.112Z,10.04
2022-09-26T04:39:35.870Z,10.04
2022-09-26T04:42:02.348Z,10.04
2022-09-26T04:44:30.313Z,10.05
2022-09-26T04:46:56.841Z,10.06
2022-09-26T04:49:24.075Z,10.09
2022-09-26T04:51:51.942Z,10.09
2022-09-26T04:54:18.352Z,10.09
2022-09-26T04:56:44.796Z,10.08
2022-09-26T04:59:11.524Z,10.06
2022-09-26T05:01:38.141Z,10.07
2022-09-26T05:04:04.679Z,10.06
2022-09-26T05:06:31.650Z,10.04
2022-09-26T05:08:58.225Z,10.02
2022-09-26T05:11:25.053Z,10.01
2022-09-26T05:13:53.612Z,10.01
2022-09-26T05:16:20.331Z,10.00
2022-09-26T05:18:51.846Z,9.99
2022-09-26T05:21:18.609Z,9.98
2022-09-26T05:24:03.283Z,9.97
2022-09-26T05:26:38.919Z,9.95
2022-09-26T05:29:08.894Z,9.95
2022-09-26T05:31:37.863Z,9.94
2022-09-26T05:34:07.392Z,9.93
2022-09-26T05:36:34.188Z,9.93
2022-09-26T05:39:00.675Z,9.93
2022-09-26T05:41:29.523Z,9.91
2022-09-26T05:43:56.376Z,9.91
2022-09-26T05:46:23.798Z,9.93
2022-09-26T05:48:50.517Z,9.90
2022-09-26T05:51:21.088Z,9.90
2022-09-26T05:53:49.429Z,9.92
2022-09-26T05:56:19.218Z,9.91
2022-09-26T05:58:46.553Z,9.89
2022-09-26T06:01:15.493Z,9.89
2022-09-26T06:03:47.485Z,9.88
2022-09-26T06:06:16.553Z,9.87
2022-09-26T06:08:43.593Z,9.87
2022-09-26T06:11:15.123Z,9.84
2022-09-26T06:13:45.603Z,9.83
2022-09-26T06:16:21.217Z,9.83
2022-09-26T06:18:51.043Z,9.85
2022-09-26T06:21:18.900Z,9.86
2022-09-26T06:23:45.800Z,9.88
2022-09-26T06:26:17.133Z,9.93
2022-09-26T06:28:43.608Z,9.95
2022-09-26T06:31:12.095Z,9.98
2022-09-26T06:33:38.578Z,10.01
2022-09-26T06:36:08.639Z,10.01
2022-09-26T06:38:35.841Z,10.03
2022-09-26T06:41:02.998Z,10.05
2022-09-26T06:43:31.226Z,10.07
2022-09-26T06:45:57.642Z,10.10
2022-09-26T06:48:25.336Z,10.10
2022-09-26T06:50:53.156Z,10.10
2022-09-26T06:53:20.637Z,10.13
2022-09-26T06:55:47.310Z,10.14
2022-09-26T06:58:13.917Z,10.17
2022-09-26T07:00:40.765Z,10.19
2022-09-26T07:03:08.202Z,10.21
2022-09-26T07:05:35.046Z,10.26
2022-09-26T07:08:02.749Z,10.30
2022-09-26T07:10:30.361Z,10.33
2022-09-26T07:13:05.209Z,10.37
2022-09-26T07:15:33.912Z,10.44
2022-09-26T07:18:06.276Z,10.48
2022-09-26T07:20:36.958Z,10.53
2022-09-26T07:23:04.561Z,10.62
2022-09-26T07:25:31.859Z,10.71
2022-09-26T07:27:58.927Z,10.75
2022-09-26T07:30:26.404Z,10.77
2022-09-26T07:32:52.767Z,10.72
2022-09-26T07:35:19.355Z,10.71
2022-09-26T07:37:46.188Z,10.68
2022-09-26T07:40:13.539Z,10.65
2022-09-26T07:42:42.076Z,10.64
2022-09-26T07:45:24.788Z,10.61
2022-09-26T07:48:13.683Z,10.60
2022-09-26T07:50:40.172Z,10.60
2022-09-26T07:53:06.583Z,10.60
2022-09-26T07:55:54.178Z,10.61
2022-09-26T07:58:22.442Z,10.60
2022-09-26T08:00:48.805Z,10.64
2022-09-26T08:03:15.362Z,10.66
2022-09-26T08:05:43.004Z,10.69
2022-09-26T08:08:09.443Z,10.75
2022-09-26T08:10:35.838Z,10.78
2022-09-26T08:13:02.199Z,10.81
2022-09-26T08:15:28.579Z,10.82
2022-09-26T08:17:55.014Z,10.84
2022-09-26T08:20:21.523Z,10.91
2022-09-26T08:22:48.038Z,10.95
2022-09-26T08:25:14.563Z,10.97
2022-09-26T08:27:43.459Z,10.99
2022-09-26T08:30:10.536Z,11.02
2022-09-26T08:32:37.185Z,11.05
2022-09-26T08:35:03.773Z,11.08
2022-09-26T08:37:31.479Z,11.12
2022-09-26T08:39:57.990Z,11.11
2022-09-26T08:42:37.592Z,11.01
2022-09-26T08:45:46.658Z,10.95
2022-09-26T08:48:30.387Z,10.86
2022-09-26T08:51:29.062Z,10.75
2022-09-26T08:54:09.927Z,10.72
2022-09-26T08:56:41.111Z,10.74
2022-09-26T08:59:17.923Z,10.83
2022-09-26T09:01:45.388Z,10.90
2022-09-26T09:04:16.612Z,10.93
2022-09-26T09:06:44.313Z,10.93
2022-09-26T09:09:16.247Z,10.92
2022-09-26T09:12:01.850Z,10.93
2022-09-26T09:15:24.739Z,10.92
2022-09-26T09:18:22.639Z,10.88
2022-09-26T09:21:25.857Z,10.87
2022-09-26T09:24:13.456Z,10.79
2022-09-26T09:30:00.467Z,10.84
2022-09-26T09:32:51.145Z,10.85
2022-09-26T09:35:25.029Z,10.76
2022-09-26T09:37:53.757Z,10.72
2022-09-26T09:40:44.320Z,10.75
2022-09-26T09:43:26.828Z,10.84
2022-09-26T09:45:59.007Z,11.02
2022-09-26T09:48:27.282Z,11.14
2022-09-26T09:51:11.136Z,11.22
2022-09-26T09:53:56.553Z,11.20
2022-09-26T09:56:52.022Z,11.19
2022-09-26T09:59:36.773Z,11.31
2022-09-26T10:02:21.531Z,11.38
2022-09-26T10:05:00.474Z,11.41
2022-09-26T10:07:27.135Z,11.41
2022-09-26T10:09:54.059Z,11.37
2022-09-26T10:12:28.697Z,11.32
2022-09-26T10:15:02.318Z,11.32
2022-09-26T10:17:29.488Z,11.40
2022-09-26T10:19:56.071Z,11.44
2022-09-26T10:22:44.031Z,11.47
2022-09-26T10:25:21.301Z,11.50
2022-09-26T10:27:51.555Z,11.50
2022-09-26T10:30:18.408Z,11.51
2022-09-26T10:32:47.703Z,11.53
2022-09-26T10:35:20.909Z,11.45
2022-09-26T10:38:02.204Z,11.40
2022-09-26T10:40:46.323Z,11.35
2022-09-26T10:43:28.564Z,11.21
2022-09-26T10:46:02.487Z,11.11
2022-09-26T10:48:48.053Z,11.02
2022-09-26T10:51:25.063Z,11.03
2022-09-26T10:53:56.607Z,11.03
2022-09-26T10:56:29.152Z,11.01
2022-09-26T10:58:59.508Z,11.02
2022-09-26T11:01:31.105Z,11.07
2022-09-26T11:04:11.639Z,11.11
2022-09-26T11:06:45.231Z,11.11
2022-09-26T11:09:17.869Z,11.13
2022-09-26T11:11:47.977Z,11.12
2022-09-26T11:14:28.014Z,11.13
2022-09-26T11:16:56.347Z,11.16
2022-09-26T11:19:35.596Z,11.17
2022-09-26T11:22:11.148Z,11.14
2022-09-26T11:25:03.482Z,11.14
2022-09-26T11:27:44.049Z,11.16
2022-09-26T11:30:14.608Z,11.14
2022-09-26T11:32:44.299Z,11.14
2022-09-26T11:35:20.959Z,11.14
2022-09-26T11:38:28.925Z,11.17
2022-09-26T11:41:13.485Z,11.21
2022-09-26T11:44:07.458Z,11.34
2022-09-26T11:46:46.604Z,11.40
2022-09-26T11:49:30.574Z,11.40
2022-09-26T11:52:20.046Z,11.34
2022-09-26T11:55:10.699Z,11.25
2022-09-26T11:57:50.601Z,11.22
2022-09-26T12:00:24.551Z,11.29
2022-09-26T12:02:56.171Z,11.31
2022-09-26T12:05:50.635Z,11.29
2022-09-26T12:08:47.125Z,11.28
2022-09-26T12:11:41.632Z,11.26
2022-09-26T12:14:39.172Z,11.28
2022-09-26T12:17:36.951Z,11.32
2022-09-26T12:20:27.986Z,11.38
2022-09-26T12:23:11.718Z,11.42
2022-09-26T12:25:56.835Z,11.39
2022-09-26T12:28:26.943Z,11.39
2022-09-26T12:31:18.719Z,11.43
2022-09-26T12:34:04.800Z,11.41
2022-09-26T12:36:48.736Z,11.46
2022-09-26T12:39:15.169Z,11.48
2022-09-26T12:42:11.844Z,11.48
2022-09-26T12:45:10.466Z,11.54
2022-09-26T12:48:16.978Z,11.55
2022-09-26T12:51:22.572Z,11.54
2022-09-26T12:54:15.532Z,11.52
2022-09-26T12:57:18.790Z,11.59
2022-09-26T13:00:10.946Z,11.64
2022-09-26T13:02:56.650Z,11.68
2022-09-26T13:05:58.900Z,11.68
2022-09-26T13:08:40.544Z,11.69
2022-09-26T13:11:13.190Z,11.65
2022-09-26T13:14:27.623Z,11.63
2022-09-26T13:17:06.134Z,11.60
2022-09-26T13:19:59.005Z,11.62
2022-09-26T13:22:43.280Z,11.59
2022-09-26T13:25:26.027Z,11.68
2022-09-26T13:28:12.283Z,11.71
2022-09-26T13:30:42.748Z,11.69
2022-09-26T13:33:20.685Z,11.68
2022-09-26T13:35:50.990Z,11.66
2022-09-26T13:38:32.437Z,11.64
2022-09-26T13:41:08.662Z,11.64
2022-09-26T13:44:17.240Z,11.62
2022-09-26T13:47:17.727Z,11.67
2022-09-26T13:50:12.616Z,11.72
2022-09-26T13:52:52.475Z,11.75
2022-09-26T13:55:21.690Z,11.90
2022-09-26T13:58:06.822Z,12.00
2022-09-26T14:00:40.711Z,12.10
2022-09-26T14:03:09.281Z,12.22
2022-09-26T14:06:07.062Z,12.41
2022-09-26T14:08:54.291Z,12.63
2022-09-26T14:11:26.300Z,12.94
2022-09-26T14:14:37.679Z,13.02
2022-09-26T14:17:42.787Z,12.90
2022-09-26T14:20:20.141Z,12.73
2022-09-26T14:22:52.600Z,12.66
2022-09-26T14:25:46.568Z,12.71
2022-09-26T14:28:32.701Z,12.60
2022-09-26T14:31:18.024Z,12.45
2022-09-26T14:33:45.502Z,12.38
2022-09-26T14:36:25.979Z,12.24
2022-09-26T14:38:55.077Z,12.17
2022-09-26T14:41:27.807Z,12.13
2022-09-26T14:44:01.366Z,12.12
2022-09-26T14:46:32.807Z,12.08
2022-09-26T14:49:06.080Z,12.05
2022-09-26T14:51:41.522Z,11.99
2022-09-26T14:54:34.560Z,11.94
2022-09-26T14:57:04.695Z,11.92
2022-09-26T14:59:34.327Z,11.89
2022-09-26T15:02:31.298Z,11.87
2022-09-26T15:05:13.337Z,11.80
2022-09-26T15:07:48.961Z,11.82
2022-09-26T15:10:36.685Z,11.82
2022-09-26T15:13:07.835Z,11.84
2022-09-26T15:16:07.974Z,11.84
2022-09-26T15:18:41.756Z,11.83
2022-09-26T15:21:45.423Z,11.78
2022-09-26T15:24:33.398Z,11.79
2022-09-26T15:27:15.049Z,11.83
2022-09-26T15:29:47.295Z,11.82
2022-09-26T15:32:25.904Z,11.81
2022-09-26T15:34:54.792Z,11.80
2022-09-26T15:37:31.242Z,11.79
2022-09-26T15:40:12.519Z,11.70
2022-09-26T15:42:57.551Z,11.71
2022-09-26T15:45:40.239Z,11.77
2022-09-26T15:48:27.378Z,11.82
2022-09-26T15:50:53.732Z,11.83
2022-09-26T15:53:28.640Z,11.88
2022-09-26T15:56:08.839Z,11.91
2022-09-26T15:59:12.685Z,11.92
2022-09-26T16:01:43.429Z,11.98
2022-09-26T16:04:23.640Z,12.06
2022-09-26T16:07:03.377Z,12.09
2022-09-26T16:09:35.896Z,12.07
2022-09-26T16:12:05.950Z,12.09
2022-09-26T16:14:40.417Z,12.12
2022-09-26T16:17:18.942Z,12.20
2022-09-26T16:20:09.702Z,12.25
2022-09-26T16:22:46.880Z,12.25
2022-09-26T16:25:19.450Z,12.28
2022-09-26T16:28:10.994Z,12.25
2022-09-26T16:30:43.190Z,12.20
2022-09-26T16:33:09.685Z,12.19
2022-09-26T16:35:37.524Z,12.14
2022-09-26T16:38:21.144Z,12.14
2022-09-26T16:40:55.878Z,12.16
2022-09-26T16:43:41.357Z,12.14
2022-09-26T16:46:14.488Z,12.14
2022-09-26T16:48:50.254Z,12.07
2022-09-26T16:51:34.380Z,12.07
2022-09-26T16:54:20.444Z,12.06
2022-09-26T16:56:51.460Z,12.01
2022-09-26T16:59:22.736Z,11.95
2022-09-26T17:01:54.953Z,11.88
2022-09-26T17:04:30.860Z,11.82
2022-09-26T17:07:08.834Z,11.73
2022-09-26T17:09:35.974Z,11.69
2022-09-26T17:12:05.403Z,11.68
2022-09-26T17:14:40.447Z,11.66
2022-09-26T17:17:13.095Z,11.66
2022-09-26T17:19:41.045Z,11.66
2022-09-26T17:22:19.155Z,11.65
2022-09-26T17:24:47.876Z,11.59
2022-09-26T17:27:18.247Z,11.53
2022-09-26T17:29:48.451Z,11.51
2022-09-26T17:32:40.027Z,11.48
2022-09-26T17:35:19.802Z,11.46
2022-09-26T17:37:46.208Z,11.44
2022-09-26T17:40:19.686Z,11.42
2022-09-26T17:42:46.433Z,11.42
2022-09-26T17:45:13.033Z,11.41
2022-09-26T17:47:40.219Z,11.41
2022-09-26T17:50:17.505Z,11.40
2022-09-26T17:52:44.109Z,11.37
2022-09-26T17:55:11.492Z,11.35
2022-09-26T17:57:41.743Z,11.33
2022-09-26T18:00:11.365Z,11.28
2022-09-26T18:02:42.672Z,11.24
2022-09-26T18:05:21.537Z,11.19
2022-09-26T18:07:52.303Z,11.15
2022-09-26T18:10:25.045Z,11.13
2022-09-26T18:12:57.445Z,11.11
2022-09-26T18:15:25.116Z,11.12
2022-09-26T18:17:52.443Z,11.13
2022-09-26T18:20:21.596Z,11.14
2022-09-26T18:22:50.796Z,11.14
2022-09-26T18:25:23.872Z,11.15
2022-09-26T18:27:54.683Z,11.16
2022-09-26T18:30:22.451Z,11.18
2022-09-26T18:32:52.930Z,11.17
2022-09-26T18:35:24.122Z,11.16
2022-09-26T18:37:55.795Z,11.14
2022-09-26T18:40:27.965Z,11.14
2022-09-26T18:42:54.929Z,11.14
2022-09-26T18:45:27.616Z,11.13
2022-09-26T18:47:54.626Z,11.11
2022-09-26T18:50:34.210Z,11.09
2022-09-26T18:53:00.779Z,11.08
2022-09-26T18:55:46.241Z,11.06
2022-09-26T18:58:29.692Z,11.04
2022-09-26T19:00:56.576Z,11.02
2022-09-26T19:03:25.252Z,11.01
2022-09-26T19:05:54.838Z,10.98
2022-09-26T19:08:39.430Z,10.97
2022-09-26T19:11:12.951Z,10.93
2022-09-26T19:13:40.462Z,10.93
2022-09-26T19:16:07.867Z,10.90
2022-09-26T19:18:34.906Z,10.91
2022-09-26T19:21:04.213Z,10.89
2022-09-26T19:23:35.049Z,10.86
2022-09-26T19:26:03.077Z,10.84
2022-09-26T19:28:34.172Z,10.83
2022-09-26T19:31:01.532Z,10.83
2022-09-26T19:33:28.255Z,10.81
2022-09-26T19:35:55.094Z,10.79
2022-09-26T19:38:26.497Z,10.79
2022-09-26T19:40:53.781Z,10.77
2022-09-26T19:43:21.884Z,10.76
2022-09-26T19:45:52.202Z,10.75
2022-09-26T19:48:22.044Z,10.76
2022-09-26T19:50:50.375Z,10.74
2022-09-26T19:53:19.398Z,10.74
2022-09-26T19:55:50.300Z,10.73
2022-09-26T19:58:25.174Z,10.70
2022-09-26T20:01:00.227Z,10.67
2022-09-26T20:03:39.880Z,10.66
2022-09-26T20:06:15.188Z,10.67
2022-09-26T20:08:42.727Z,10.63
2022-09-26T20:11:09.309Z,10.64
2022-09-26T20:13:55.886Z,10.61
2022-09-26T20:16:23.123Z,10.59
2022-09-26T20:18:51.148Z,10.57
2022-09-26T20:21:21.590Z,10.55
2022-09-26T20:23:48.185Z,10.54
2022-09-26T20:26:15.335Z,10.51
2022-09-26T20:28:41.738Z,10.50
2022-09-26T20:31:34.750Z,10.45
2022-09-26T20:34:01.717Z,10.43
2022-09-26T20:36:31.975Z,10.41
2022-09-26T20:39:03.119Z,10.41
2022-09-26T20:41:33.905Z,10.38
2022-09-26T20:44:05.154Z,10.36
2022-09-26T20:46:35.277Z,10.35
2022-09-26T20:49:04.958Z,10.34
2022-09-26T20:51:35.086Z,10.33
2022-09-26T20:54:02.611Z,10.32
2022-09-26T20:56:29.276Z,10.31
2022-09-26T20:58:55.693Z,10.30
2022-09-26T21:01:22.817Z,10.29
2022-09-26T21:03:51.967Z,10.30
2022-09-26T21:06:20.684Z,10.28
2022-09-26T21:08:48.005Z,10.26
2022-09-26T21:11:17.139Z,10.25
2022-09-26T21:13:43.608Z,10.24
2022-09-26T21:16:19.154Z,10.25
2022-09-26T21:18:49.096Z,10.23
2022-09-26T21:21:29.681Z,10.24
2022-09-26T21:23:58.843Z,10.22
2022-09-26T21:26:27.882Z,10.18
2022-09-26T21:28:55.471Z,10.15
2022-09-26T21:31:29.510Z,10.17
2022-09-26T21:33:58.280Z,10.15
2022-09-26T21:36:32.642Z,10.12
2022-09-26T21:39:01.623Z,10.10
2022-09-26T21:41:29.306Z,10.09
2022-09-26T21:44:03.317Z,10.05
2022-09-26T21:46:29.865Z,10.02
2022-09-26T21:48:56.408Z,10.02
2022-09-26T21:51:27.371Z,10.00
2022-09-26T21:54:06.130Z,9.98
2022-09-26T21:56:37.897Z,9.97
2022-09-26T21:59:06.592Z,9.96
2022-09-26T22:01:33.235Z,9.93
2022-09-26T22:03:59.644Z,9.90
2022-09-26T22:06:26.075Z,9.89
2022-09-26T22:08:52.491Z,9.89
2022-09-26T22:11:18.908Z,9.88
2022-09-26T22:13:45.372Z,9.87
2022-09-26T22:16:13.153Z,9.87
2022-09-26T22:18:40.367Z,9.87
2022-09-26T22:21:08.594Z,9.87
2022-09-26T22:23:35.530Z,9.82
2022-09-26T22:26:02.454Z,9.81
2022-09-26T22:28:29.413Z,9.81
2022-09-26T22:30:56.338Z,9.79
2022-09-26T22:33:23.239Z,9.78
2022-09-26T22:35:50.687Z,9.78
2022-09-26T22:38:18.251Z,9.75
2022-09-26T22:40:45.465Z,9.75
2022-09-26T22:43:11.979Z,9.74
2022-09-26T22:45:38.417Z,9.75
2022-09-26T22:48:04.823Z,9.74
2022-09-26T22:50:31.266Z,9.73
2022-09-26T22:52:59.062Z,9.73
2022-09-26T22:55:25.506Z,9.72
2022-09-26T22:57:52.025Z,9.71
2022-09-26T23:00:18.516Z,9.68
2022-09-26T23:02:45.090Z,9.68
2022-09-26T23:05:11.573Z,9.65
2022-09-26T23:07:38.026Z,9.63
2022-09-26T23:10:04.691Z,9.60
2022-09-26T23:12:32.830Z,9.57
2022-09-26T23:14:59.294Z,9.55
2022-09-26T23:17:25.679Z,9.52
2022-09-26T23:19:52.350Z,9.48
2022-09-26T23:22:18.950Z,9.47
2022-09-26T23:24:45.405Z,9.43
2022-09-26T23:27:11.882Z,9.40
2022-09-26T23:29:38.274Z,9.37
2022-09-26T23:32:04.767Z,9.34
2022-09-26T23:34:31.286Z,9.32
2022-09-26T23:36:57.678Z,9.30
2022-09-26T23:39:24.279Z,9.29
2022-09-26T23:41:50.843Z,9.28
2022-09-26T23:44:17.329Z,9.26
2022-09-26T23:46:44.055Z,9.23
2022-09-26T23:49:10.588Z,9.21
2022-09-26T23:51:37.024Z,9.18
2022-09-26T23:54:03.523Z,9.14
2022-09-26T23:56:29.979Z,9.13
2022-09-26T23:58:57.326Z,9.11
